createdAt,value
2023-05-24T00:01:43.436Z,8.92
2023-05-24T00:04:13.355Z,8.90
2023-05-24T00:06:44.984Z,8.89
2023-05-24T00:09:13.513Z,8.91
2023-05-24T00:11:41.849Z,8.90
2023-05-24T00:14:10.180Z,8.90
2023-05-24T00:16:38.993Z,8.84
2023-05-24T00:19:07.365Z,8.83
2023-05-24T00:21:37.426Z,8.82
2023-05-24T00:24:06.620Z,8.81
2023-05-24T00:26:34.909Z,8.77
2023-05-24T00:29:04.015Z,8.79
2023-05-24T00:31:33.290Z,8.77
2023-05-24T00:34:01.695Z,8.75
2023-05-24T00:36:30.035Z,8.74
2023-05-24T00:39:00.040Z,8.72
2023-05-24T00:41:28.433Z,8.72
2023-05-24T00:43:56.857Z,8.67
2023-05-24T00:46:28.514Z,8.69
2023-05-24T00:48:57.227Z,8.64
2023-05-24T00:51:26.549Z,8.65
2023-05-24T00:53:54.931Z,8.62
2023-05-24T00:56:24.689Z,8.60
2023-05-24T00:58:56.204Z,8.57
2023-05-24T01:01:26.144Z,8.61
2023-05-24T01:03:54.868Z,8.59
2023-05-24T01:06:23.609Z,8.55
2023-05-24T01:09:12.023Z,8.56
2023-05-24T01:11:48.010Z,8.52
2023-05-24T01:14:21.322Z,8.56
2023-05-24T01:16:56.545Z,8.55
2023-05-24T01:19:43.464Z,8.51
2023-05-24T01:22:19.122Z,8.49
2023-05-24T01:24:55.197Z,8.48
2023-05-24T01:27:25.180Z,8.50
2023-05-24T01:29:54.445Z,8.50
2023-05-24T01:32:22.923Z,8.45
2023-05-24T01:34:51.369Z,8.36
2023-05-24T01:37:19.792Z,8.30
2023-05-24T01:39:48.462Z,8.33
2023-05-24T01:42:24.168Z,8.32
2023-05-24T01:45:00.838Z,8.29
2023-05-24T01:47:33.130Z,8.25
2023-05-24T01:50:04.682Z,8.12
2023-05-24T01:52:33.815Z,8.15
2023-05-24T01:55:04.217Z,8.06
2023-05-24T01:57:33.524Z,8.10
2023-05-24T02:00:03.974Z,8.10
2023-05-24T02:02:41.132Z,8.10
2023-05-24T02:05:10.676Z,8.10
2023-05-24T02:07:39.312Z,8.08
2023-05-24T02:10:08.738Z,8.05
2023-05-24T02:12:37.142Z,8.03
2023-05-24T02:15:07.902Z,8.01
2023-05-24T02:17:36.369Z,7.96
2023-05-24T02:20:05.675Z,7.93
2023-05-24T02:22:34.051Z,7.93
2023-05-24T02:25:02.409Z,7.87
2023-05-24T02:27:30.877Z,7.74
2023-05-24T02:29:59.252Z,7.77
2023-05-24T02:32:29.045Z,7.77
2023-05-24T02:34:59.273Z,7.80
2023-05-24T02:37:27.946Z,7.79
2023-05-24T02:39:56.278Z,7.76
2023-05-24T02:42:24.682Z,7.68
2023-05-24T02:44:53.612Z,7.64
2023-05-24T02:47:22.151Z,7.57
2023-05-24T02:49:52.202Z,7.56
2023-05-24T02:52:21.943Z,7.55
2023-05-24T02:54:50.521Z,7.51
2023-05-24T02:57:20.976Z,7.49
2023-05-24T02:59:49.357Z,7.47
2023-05-24T03:02:19.655Z,7.46
2023-05-24T03:04:48.112Z,7.43
2023-05-24T03:07:17.954Z,7.43
2023-05-24T03:09:46.387Z,7.38
2023-05-24T03:12:14.732Z,7.38
2023-05-24T03:14:43.285Z,7.40
2023-05-24T03:17:12.091Z,7.37
2023-05-24T03:19:40.419Z,7.29
2023-05-24T03:22:08.813Z,7.31
2023-05-24T03:24:38.999Z,7.32
2023-05-24T03:27:08.784Z,7.29
2023-05-24T03:29:37.374Z,7.31
2023-05-24T03:32:06.750Z,7.22
2023-05-24T03:34:35.261Z,7.17
2023-05-24T03:37:03.899Z,7.17
2023-05-24T03:39:32.271Z,7.18
2023-05-24T03:42:19.004Z,7.16
2023-05-24T03:44:47.676Z,7.12
2023-05-24T03:47:16.310Z,7.08
2023-05-24T03:49:44.660Z,7.07
2023-05-24T03:52:13.173Z,7.07
2023-05-24T03:54:41.551Z,7.05
2023-05-24T03:57:10.422Z,7.02
2023-05-24T03:59:41.373Z,7.04
2023-05-24T04:02:10.027Z,7.08
2023-05-24T04:04:38.568Z,7.09
2023-05-24T04:07:08.128Z,7.05
2023-05-24T04:09:36.489Z,7.06
2023-05-24T04:12:05.267Z,7.11
2023-05-24T04:14:34.007Z,7.15
2023-05-24T04:17:06.023Z,7.18
2023-05-24T04:19:34.551Z,7.21
2023-05-24T04:22:02.993Z,7.26
2023-05-24T04:24:31.833Z,7.28
2023-05-24T04:27:00.155Z,7.32
2023-05-24T04:29:28.684Z,7.35
2023-05-24T04:31:57.358Z,7.35
2023-05-24T04:34:29.921Z,7.38
2023-05-24T04:36:58.405Z,7.39
2023-05-24T04:39:26.798Z,7.43
2023-05-24T04:41:58.133Z,7.43
2023-05-24T04:44:26.460Z,7.44
2023-05-24T04:46:54.819Z,7.48
2023-05-24T04:49:23.652Z,7.51
2023-05-24T04:51:55.104Z,7.51
2023-05-24T04:54:23.669Z,7.50
2023-05-24T04:56:52.161Z,7.54
2023-05-24T04:59:20.563Z,7.53
2023-05-24T05:01:49.022Z,7.55
2023-05-24T05:04:17.755Z,7.45
2023-05-24T05:06:46.570Z,7.51
2023-05-24T05:09:16.272Z,7.51
2023-05-24T05:11:44.614Z,7.59
2023-05-24T05:14:13.003Z,7.67
2023-05-24T05:16:41.451Z,7.69
2023-05-24T05:19:10.043Z,7.70
2023-05-24T05:21:39.852Z,7.76
2023-05-24T05:24:08.261Z,7.76
2023-05-24T05:26:38.098Z,7.82
2023-05-24T05:29:06.398Z,7.72
2023-05-24T05:31:35.237Z,7.76
2023-05-24T05:34:03.553Z,7.75
2023-05-24T05:36:32.446Z,7.82
2023-05-24T05:39:00.786Z,7.73
2023-05-24T05:41:29.099Z,7.79
2023-05-24T05:43:59.084Z,7.87
2023-05-24T05:46:27.413Z,7.91
2023-05-24T05:48:55.709Z,7.98
2023-05-24T05:51:24.091Z,8.00
2023-05-24T05:53:52.404Z,8.02
2023-05-24T05:56:20.735Z,7.87
2023-05-24T05:58:49.376Z,8.03
2023-05-24T06:01:19.186Z,8.11
2023-05-24T06:03:47.813Z,8.24
2023-05-24T06:06:16.417Z,8.29
2023-05-24T06:08:44.945Z,8.31
2023-05-24T06:11:13.607Z,8.30
2023-05-24T06:13:41.836Z,8.22
2023-05-24T06:16:10.526Z,8.35
2023-05-24T06:18:47.322Z,8.33
2023-05-24T06:21:21.969Z,8.19
2023-05-24T06:23:50.340Z,8.25
2023-05-24T06:26:20.107Z,8.42
2023-05-24T06:28:48.469Z,8.43
2023-05-24T06:31:17.001Z,8.32
2023-05-24T06:33:52.401Z,8.36
2023-05-24T06:36:31.102Z,8.42
2023-05-24T06:38:59.842Z,8.60
2023-05-24T06:41:28.506Z,8.47
2023-05-24T06:43:56.862Z,8.60
2023-05-24T06:46:25.190Z,8.50
2023-05-24T06:48:55.074Z,8.62
2023-05-24T06:51:23.488Z,8.57
2023-05-24T06:53:52.250Z,8.73
2023-05-24T06:56:20.589Z,8.82
2023-05-24T06:58:48.962Z,8.85
2023-05-24T07:01:18.763Z,8.77
2023-05-24T07:03:47.318Z,8.71
2023-05-24T07:06:17.296Z,8.72
2023-05-24T07:08:46.097Z,8.71
2023-05-24T07:11:14.418Z,8.78
2023-05-24T07:13:42.814Z,8.84
2023-05-24T07:16:11.864Z,8.73
2023-05-24T07:18:41.805Z,8.83
2023-05-24T07:21:10.560Z,8.94
2023-05-24T07:23:40.387Z,8.84
2023-05-24T07:26:09.132Z,8.78
2023-05-24T07:28:38.985Z,8.88
2023-05-24T07:31:08.272Z,8.94
2023-05-24T07:33:38.036Z,8.83
2023-05-24T07:36:07.363Z,8.95
2023-05-24T07:38:36.173Z,9.15
2023-05-24T07:41:06.402Z,9.30
2023-05-24T07:43:34.737Z,9.55
2023-05-24T07:46:03.111Z,9.49
2023-05-24T07:48:31.952Z,9.58
2023-05-24T07:51:00.225Z,9.54
2023-05-24T07:53:28.578Z,9.60
2023-05-24T07:55:56.917Z,9.68
2023-05-24T07:58:26.676Z,9.83
2023-05-24T08:00:55.966Z,9.92
2023-05-24T08:03:26.195Z,10.07
2023-05-24T08:05:54.707Z,10.12
2023-05-24T08:08:23.193Z,10.00
2023-05-24T08:10:51.517Z,10.05
2023-05-24T08:13:19.816Z,10.26
2023-05-24T08:15:49.552Z,10.34
2023-05-24T08:18:18.222Z,10.36
2023-05-24T08:20:46.842Z,10.36
2023-05-24T08:23:15.338Z,10.49
2023-05-24T08:25:44.252Z,10.26
2023-05-24T08:28:12.927Z,10.48
2023-05-24T08:30:41.834Z,10.59
2023-05-24T08:33:11.669Z,10.87
2023-05-24T08:35:40.229Z,10.95
2023-05-24T08:38:08.736Z,11.14
2023-05-24T08:40:37.071Z,11.16
2023-05-24T08:43:11.868Z,11.27
2023-05-24T08:45:41.232Z,11.29
2023-05-24T08:48:11.221Z,11.27
2023-05-24T08:50:39.679Z,11.37
2023-05-24T08:53:08.286Z,11.17
2023-05-24T08:55:36.597Z,11.02
2023-05-24T08:58:05.164Z,11.34
2023-05-24T09:00:33.534Z,11.48
2023-05-24T09:03:01.875Z,11.47
2023-05-24T09:05:31.901Z,11.36
2023-05-24T09:08:01.260Z,11.53
2023-05-24T09:10:37.946Z,12.07
2023-05-24T09:13:10.158Z,12.40
2023-05-24T09:15:38.548Z,12.45
2023-05-24T09:18:06.956Z,12.44
2023-05-24T09:20:37.151Z,12.37
2023-05-24T09:23:05.469Z,12.48
2023-05-24T09:25:34.073Z,12.66
2023-05-24T09:28:06.784Z,12.75
2023-05-24T09:30:35.384Z,13.10
2023-05-24T09:33:05.608Z,13.13
2023-05-24T09:35:34.073Z,13.16
2023-05-24T09:38:04.106Z,13.35
2023-05-24T09:40:32.893Z,13.87
2023-05-24T09:43:04.976Z,14.43
2023-05-24T09:45:33.564Z,14.33
2023-05-24T09:48:04.889Z,14.19
2023-05-24T09:50:33.593Z,14.19
2023-05-24T09:53:03.914Z,14.56
2023-05-24T09:55:32.439Z,14.59
2023-05-24T09:58:04.672Z,14.88
2023-05-24T10:00:36.516Z,15.44
2023-05-24T10:03:06.995Z,15.26
2023-05-24T10:05:35.477Z,15.06
2023-05-24T10:08:06.281Z,15.15
2023-05-24T10:10:35.017Z,15.65
2023-05-24T10:13:03.649Z,15.88
2023-05-24T10:15:31.971Z,16.30
2023-05-24T10:18:02.002Z,16.77
2023-05-24T10:20:30.666Z,16.81
2023-05-24T10:23:01.074Z,16.73
2023-05-24T10:25:30.901Z,16.96
2023-05-24T10:28:00.285Z,17.23
2023-05-24T10:30:30.597Z,16.94
2023-05-24T10:32:58.891Z,16.95
2023-05-24T10:35:28.464Z,16.85
2023-05-24T10:37:57.464Z,16.42
2023-05-24T10:40:26.570Z,16.24
2023-05-24T10:42:56.314Z,16.36
2023-05-24T10:45:32.877Z,16.28
2023-05-24T10:48:03.690Z,16.64
2023-05-24T10:50:32.274Z,17.12
2023-05-24T10:53:15.771Z,17.19
2023-05-24T10:55:54.635Z,16.09
2023-05-24T10:58:28.501Z,15.42
2023-05-24T11:00:57.356Z,15.66
2023-05-24T11:03:25.792Z,15.70
2023-05-24T11:05:55.059Z,15.75
2023-05-24T11:08:28.139Z,15.69
2023-05-24T11:13:43.362Z,15.51
2023-05-24T11:16:12.002Z,15.61
2023-05-24T11:18:40.336Z,15.59
2023-05-24T11:21:08.660Z,15.71
2023-05-24T11:23:38.331Z,15.57
2023-05-24T11:26:08.216Z,15.48
2023-05-24T11:28:39.190Z,15.40
2023-05-24T11:31:11.055Z,14.95
2023-05-24T11:33:42.684Z,15.21
2023-05-24T11:36:11.118Z,15.36
2023-05-24T11:38:39.862Z,15.26
2023-05-24T11:41:08.667Z,15.32
2023-05-24T11:43:37.042Z,15.51
2023-05-24T11:46:05.364Z,15.61
2023-05-24T11:48:35.194Z,15.39
2023-05-24T11:51:05.915Z,15.35
2023-05-24T11:53:34.250Z,15.26
2023-05-24T11:56:05.468Z,15.29
2023-05-24T11:58:37.409Z,15.14
2023-05-24T12:01:06.031Z,15.09
2023-05-24T12:03:36.085Z,15.07
2023-05-24T12:06:04.667Z,14.79
2023-05-24T12:08:33.474Z,14.89
2023-05-24T12:11:03.040Z,15.14
2023-05-24T12:13:31.561Z,15.11
2023-05-24T12:15:59.893Z,15.24
2023-05-24T12:18:28.360Z,15.40
2023-05-24T12:20:58.092Z,15.10
2023-05-24T12:23:27.878Z,14.88
2023-05-24T12:25:59.948Z,15.12
2023-05-24T12:28:28.589Z,14.85
2023-05-24T12:30:57.235Z,14.73
2023-05-24T12:33:26.106Z,14.54
2023-05-24T12:35:54.520Z,14.59
2023-05-24T12:38:25.777Z,14.73
2023-05-24T12:41:08.116Z,14.60
2023-05-24T12:43:40.959Z,14.82
2023-05-24T12:46:09.262Z,14.63
2023-05-24T12:48:37.552Z,14.44
2023-05-24T12:51:06.432Z,14.75
2023-05-24T12:53:36.676Z,14.68
2023-05-24T12:56:05.079Z,14.61
2023-05-24T12:58:33.390Z,14.58
2023-05-24T13:01:01.781Z,14.76
2023-05-24T13:03:30.109Z,14.89
2023-05-24T13:06:00.212Z,14.97
2023-05-24T13:08:30.276Z,14.88
2023-05-24T13:11:00.500Z,15.00
2023-05-24T13:13:29.010Z,15.22
2023-05-24T13:15:57.362Z,15.16
2023-05-24T13:18:26.348Z,15.05
2023-05-24T13:20:55.088Z,15.12
2023-05-24T13:23:23.845Z,15.03
2023-05-24T13:25:52.193Z,14.91
2023-05-24T13:28:22.258Z,14.89
2023-05-24T13:30:50.616Z,15.12
2023-05-24T13:33:19.203Z,15.37
2023-05-24T13:35:47.462Z,15.31
2023-05-24T13:38:15.775Z,15.30
2023-05-24T13:40:44.554Z,15.61
2023-05-24T13:43:13.048Z,15.75
2023-05-24T13:45:43.222Z,15.71
2023-05-24T13:48:11.559Z,15.86
2023-05-24T13:50:39.978Z,15.95
2023-05-24T13:53:08.388Z,15.96
2023-05-24T13:55:37.830Z,16.16
2023-05-24T13:58:06.560Z,15.82
2023-05-24T14:00:36.202Z,15.61
2023-05-24T14:03:06.661Z,15.82
2023-05-24T14:05:35.085Z,15.98
2023-05-24T14:08:06.805Z,16.16
2023-05-24T14:10:36.801Z,16.19
2023-05-24T14:15:40.141Z,16.13
2023-05-24T14:18:10.149Z,16.01
2023-05-24T14:20:40.296Z,15.67
2023-05-24T14:23:08.894Z,15.47
2023-05-24T14:25:37.542Z,15.56
2023-05-24T14:28:07.683Z,15.52
2023-05-24T14:30:37.875Z,15.65
2023-05-24T14:33:08.481Z,15.64
2023-05-24T14:35:40.070Z,15.27
2023-05-24T14:38:08.943Z,15.47
2023-05-24T14:40:39.178Z,15.72
2023-05-24T14:43:10.344Z,15.68
2023-05-24T14:45:41.621Z,15.45
2023-05-24T14:48:11.779Z,15.41
2023-05-24T14:50:45.324Z,15.24
2023-05-24T14:53:13.904Z,15.06
2023-05-24T14:55:43.373Z,15.03
2023-05-24T14:58:13.038Z,14.85
2023-05-24T15:00:42.044Z,14.69
2023-05-24T15:03:12.800Z,14.68
2023-05-24T15:05:42.212Z,14.51
2023-05-24T15:08:12.406Z,14.42
2023-05-24T15:10:41.246Z,14.05
2023-05-24T15:13:09.747Z,14.00
2023-05-24T15:15:38.068Z,14.00
2023-05-24T15:18:06.704Z,13.95
2023-05-24T15:20:35.973Z,13.92
2023-05-24T15:23:04.442Z,13.94
2023-05-24T15:25:34.201Z,13.90
2023-05-24T15:28:03.193Z,13.82
2023-05-24T15:30:31.703Z,13.60
2023-05-24T15:33:00.614Z,13.55
2023-05-24T15:35:28.984Z,13.41
2023-05-24T15:37:57.484Z,13.37
2023-05-24T15:40:25.824Z,13.24
2023-05-24T15:42:55.579Z,13.20
2023-05-24T15:45:23.936Z,13.13
2023-05-24T15:47:52.795Z,13.09
2023-05-24T15:50:31.805Z,13.02
2023-05-24T15:53:04.691Z,13.28
2023-05-24T15:55:33.762Z,13.60
2023-05-24T16:00:32.583Z,14.13
2023-05-24T16:03:01.444Z,14.26
2023-05-24T16:05:29.822Z,14.32
2023-05-24T16:07:58.155Z,14.45
2023-05-24T16:10:26.450Z,14.73
2023-05-24T16:12:56.106Z,14.86
2023-05-24T16:15:26.681Z,14.92
2023-05-24T16:17:55.845Z,14.77
2023-05-24T16:20:24.336Z,14.81
2023-05-24T16:22:53.014Z,14.87
2023-05-24T16:25:21.335Z,14.50
2023-05-24T16:27:50.059Z,14.24
2023-05-24T16:30:18.349Z,14.08
2023-05-24T16:32:48.119Z,14.31
2023-05-24T16:35:16.580Z,14.53
2023-05-24T16:37:44.928Z,14.78
2023-05-24T16:40:14.423Z,14.54
2023-05-24T16:42:42.727Z,14.43
2023-05-24T16:45:11.607Z,14.71
2023-05-24T16:47:40.025Z,14.84
2023-05-24T16:50:14.954Z,14.87
2023-05-24T16:52:43.466Z,14.79
2023-05-24T16:55:12.510Z,14.60
2023-05-24T16:57:40.902Z,14.50
2023-05-24T17:00:10.090Z,14.32
2023-05-24T17:02:38.480Z,14.10
2023-05-24T17:05:07.630Z,14.03
2023-05-24T17:07:37.915Z,13.91
2023-05-24T17:10:07.410Z,13.62
2023-05-24T17:12:35.784Z,13.66
2023-05-24T17:15:04.095Z,13.73
2023-05-24T17:17:32.440Z,13.72
2023-05-24T17:20:01.678Z,13.69
2023-05-24T17:22:30.145Z,13.59
2023-05-24T17:24:59.878Z,13.62
2023-05-24T17:27:28.214Z,13.56
2023-05-24T17:29:57.001Z,13.36
2023-05-24T17:32:25.789Z,13.36
2023-05-24T17:34:54.458Z,13.33
2023-05-24T17:37:22.796Z,13.30
2023-05-24T17:39:52.514Z,13.21
2023-05-24T17:42:22.386Z,13.26
2023-05-24T17:44:50.898Z,13.36
2023-05-24T17:47:19.182Z,13.31
2023-05-24T17:49:48.052Z,13.29
2023-05-24T17:52:16.591Z,13.27
2023-05-24T17:54:45.027Z,13.19
2023-05-24T17:57:13.523Z,13.10
2023-05-24T17:59:43.247Z,13.01
2023-05-24T18:02:11.543Z,12.91
2023-05-24T18:04:39.883Z,12.78
2023-05-24T18:07:08.267Z,12.64
2023-05-24T18:09:36.685Z,12.61
2023-05-24T18:12:05.785Z,12.47
2023-05-24T18:14:34.150Z,12.47
2023-05-24T18:17:04.255Z,12.34
2023-05-24T18:19:32.818Z,12.29
2023-05-24T18:22:01.275Z,12.21
2023-05-24T18:24:29.692Z,12.13
2023-05-24T18:26:58.218Z,11.94
2023-05-24T18:29:26.853Z,11.83
2023-05-24T18:31:55.183Z,11.72
2023-05-24T18:34:24.946Z,11.64
2023-05-24T18:36:54.722Z,11.49
2023-05-24T18:39:23.012Z,11.37
2023-05-24T18:41:51.304Z,11.32
2023-05-24T18:44:20.059Z,11.17
2023-05-24T18:46:48.443Z,11.02
2023-05-24T18:49:17.730Z,10.88
2023-05-24T18:51:47.483Z,10.72
2023-05-24T18:54:16.109Z,10.58
2023-05-24T18:56:45.705Z,10.46
2023-05-24T18:59:14.191Z,10.33
2023-05-24T19:01:42.841Z,10.22
2023-05-24T19:04:11.273Z,10.11
2023-05-24T19:06:39.584Z,9.97
2023-05-24T19:09:09.459Z,9.87
2023-05-24T19:11:38.256Z,9.77
2023-05-24T19:14:06.540Z,9.70
2023-05-24T19:16:34.839Z,9.62
2023-05-24T19:19:03.309Z,9.51
2023-05-24T19:21:33.184Z,9.43
2023-05-24T19:24:01.812Z,9.30
2023-05-24T19:26:31.562Z,9.20
2023-05-24T19:29:00.665Z,9.13
2023-05-24T19:31:29.642Z,9.08
2023-05-24T19:34:01.012Z,9.05
2023-05-24T19:36:30.775Z,8.99
2023-05-24T19:38:59.098Z,8.92
2023-05-24T19:41:27.448Z,8.84
2023-05-24T19:43:58.819Z,8.77
2023-05-24T19:46:27.158Z,8.71
2023-05-24T19:48:55.586Z,8.64
2023-05-24T19:51:24.584Z,8.60
2023-05-24T19:53:52.863Z,8.53
2023-05-24T19:56:21.479Z,8.44
2023-05-24T19:58:50.303Z,8.38
2023-05-24T20:01:20.160Z,8.31
2023-05-24T20:03:49.594Z,8.24
2023-05-24T20:06:18.176Z,8.18
2023-05-24T20:08:46.874Z,8.10
2023-05-24T20:11:15.587Z,8.05
2023-05-24T20:13:44.336Z,8.01
2023-05-24T20:16:12.916Z,7.98
2023-05-24T20:18:42.752Z,7.90
2023-05-24T20:21:11.260Z,7.87
2023-05-24T20:23:39.651Z,7.83
2023-05-24T20:26:07.984Z,7.83
2023-05-24T20:28:36.328Z,7.77
2023-05-24T20:31:05.176Z,7.74
2023-05-24T20:33:38.145Z,7.67
2023-05-24T20:36:08.725Z,7.60
2023-05-24T20:38:37.698Z,7.53
2023-05-24T20:41:06.470Z,7.49
2023-05-24T20:43:34.767Z,7.42
2023-05-24T20:46:03.587Z,7.35
2023-05-24T20:48:31.939Z,7.35
2023-05-24T20:51:00.300Z,7.33
2023-05-24T20:53:30.070Z,7.27
2023-05-24T20:55:58.376Z,7.24
2023-05-24T20:58:26.931Z,7.22
2023-05-24T21:00:55.319Z,7.15
2023-05-24T21:03:23.785Z,7.13
2023-05-24T21:05:52.171Z,7.05
2023-05-24T21:08:20.494Z,7.01
2023-05-24T21:10:50.259Z,6.98
2023-05-24T21:13:20.562Z,6.91
2023-05-24T21:15:50.760Z,6.87
2023-05-24T21:18:19.494Z,6.86
2023-05-24T21:20:47.878Z,6.81
2023-05-24T21:23:16.272Z,6.80
2023-05-24T21:25:44.905Z,6.81
2023-05-24T21:28:15.220Z,6.78
2023-05-24T21:30:43.513Z,6.72
2023-05-24T21:33:11.890Z,6.68
2023-05-24T21:35:40.229Z,6.64
2023-05-24T21:38:08.553Z,6.64
2023-05-24T21:40:37.278Z,6.62
2023-05-24T21:43:05.816Z,6.67
2023-05-24T21:45:35.529Z,6.62
2023-05-24T21:48:03.867Z,6.56
2023-05-24T21:50:32.253Z,6.51
2023-05-24T21:53:00.880Z,6.46
2023-05-24T21:55:29.994Z,6.43
2023-05-24T21:57:58.603Z,6.40
2023-05-24T22:00:27.266Z,6.37
2023-05-24T22:02:57.113Z,6.32
2023-05-24T22:05:27.591Z,6.27
2023-05-24T22:07:56.673Z,6.25
2023-05-24T22:10:25.026Z,6.23
2023-05-24T22:12:53.330Z,6.22
2023-05-24T22:15:21.665Z,6.18
2023-05-24T22:17:50.443Z,6.14
2023-05-24T22:20:20.600Z,6.13
2023-05-24T22:22:53.793Z,6.09
2023-05-24T22:25:22.453Z,6.03
2023-05-24T22:27:50.791Z,5.99
2023-05-24T22:30:20.610Z,5.93
2023-05-24T22:32:48.988Z,5.90
2023-05-24T22:35:19.495Z,5.88
2023-05-24T22:37:47.812Z,5.85
2023-05-24T22:40:16.206Z,5.83
2023-05-24T22:42:44.539Z,5.79
2023-05-24T22:45:14.175Z,5.74
2023-05-24T22:47:42.827Z,5.72
2023-05-24T22:50:12.047Z,5.70
2023-05-24T22:52:42.784Z,5.65
2023-05-24T22:55:11.392Z,5.64
2023-05-24T22:57:39.706Z,5.62
2023-05-24T23:00:10.076Z,5.62
2023-05-24T23:02:38.479Z,5.59
2023-05-24T23:05:07.715Z,5.55
2023-05-24T23:07:37.547Z,5.50
2023-05-24T23:10:09.470Z,5.46
2023-05-24T23:12:37.814Z,5.44
2023-05-24T23:15:07.468Z,5.42
2023-05-24T23:17:36.013Z,5.41
2023-05-24T23:20:05.805Z,5.39
2023-05-24T23:22:34.183Z,5.37
2023-05-24T23:25:02.592Z,5.33
2023-05-24T23:27:32.486Z,5.30
2023-05-24T23:30:01.105Z,5.28
2023-05-24T23:32:29.726Z,5.27
2023-05-24T23:34:58.079Z,5.27
2023-05-24T23:37:26.618Z,5.22
2023-05-24T23:39:54.923Z,5.17
2023-05-24T23:42:23.760Z,5.13
2023-05-24T23:44:53.514Z,5.10
2023-05-24T23:47:21.912Z,5.11
2023-05-24T23:49:50.261Z,5.11
2023-05-24T23:52:18.784Z,5.09
2023-05-24T23:54:47.114Z,5.11
2023-05-24T23:57:17.514Z,5.07
2023-05-24T23:59:46.091Z,5.03
